sensor_id;sensor_type;location;lat;lon;timestamp;P1;durP1;ratioP1;P2;durP2;ratioP2
4001;SDS011;2015;48.670;9.060;2023-04-25T00:00:43;4.53;;;4.13;;
4001;SDS011;2015;48.670;9.060;2023-04-25T00:03:15;5.03;;;4.47;;
4001;SDS011;2015;48.670;9.060;2023-04-25T00:05:47;5.37;;;4.90;;
4001;SDS011;2015;48.670;9.060;2023-04-25T00:08:20;5.80;;;4.80;;
4001;SDS011;2015;48.670;9.060;2023-04-25T00:10:51;4.63;;;4.33;;
4001;SDS011;2015;48.670;9.060;2023-04-25T00:13:23;4.40;;;4.00;;
4001;SDS011;2015;48.670;9.060;2023-04-25T00:15:56;4.83;;;4.53;;
4001;SDS011;2015;48.670;9.060;2023-04-25T00:18:29;5.80;;;4.67;;
4001;SDS011;2015;48.670;9.060;2023-04-25T00:21:01;4.90;;;4.50;;
4001;SDS011;2015;48.670;9.060;2023-04-25T00:23:33;4.97;;;4.60;;
4001;SDS011;2015;48.670;9.060;2023-04-25T00:26:07;5.63;;;4.40;;
4001;SDS011;2015;48.670;9.060;2023-04-25T00:28:39;8.47;;;5.50;;
4001;SDS011;2015;48.670;9.060;2023-04-25T00:31:11;4.80;;;4.40;;
4001;SDS011;2015;48.670;9.060;2023-04-25T00:33:43;6.80;;;4.73;;
4001;SDS011;2015;48.670;9.060;2023-04-25T00:36:15;4.77;;;4.37;;
4001;SDS011;2015;48.670;9.060;2023-04-25T00:38:47;5.23;;;4.40;;
4001;SDS011;2015;48.670;9.060;2023-04-25T00:41:19;4.73;;;4.40;;
4001;SDS011;2015;48.670;9.060;2023-04-25T00:43:51;6.07;;;5.23;;
4001;SDS011;2015;48.670;9.060;2023-04-25T00:46:24;4.47;;;4.17;;
4001;SDS011;2015;48.670;9.060;2023-04-25T00:48:57;5.17;;;4.87;;
4001;SDS011;2015;48.670;9.060;2023-04-25T00:51:28;5.10;;;4.70;;
4001;SDS011;2015;48.670;9.060;2023-04-25T00:54:01;5.53;;;5.20;;
4001;SDS011;2015;48.670;9.060;2023-04-25T00:56:34;5.40;;;4.90;;
4001;SDS011;2015;48.670;9.060;2023-04-25T00:59:06;4.97;;;4.67;;
4001;SDS011;2015;48.670;9.060;2023-04-25T01:01:38;5.17;;;4.77;;
4001;SDS011;2015;48.670;9.060;2023-04-25T01:04:10;5.80;;;5.33;;
4001;SDS011;2015;48.670;9.060;2023-04-25T01:06:42;4.77;;;4.33;;
4001;SDS011;2015;48.670;9.060;2023-04-25T01:09:14;5.30;;;4.80;;
4001;SDS011;2015;48.670;9.060;2023-04-25T01:11:47;4.97;;;4.77;;
4001;SDS011;2015;48.670;9.060;2023-04-25T01:14:19;5.30;;;4.90;;
4001;SDS011;2015;48.670;9.060;2023-04-25T01:16:51;5.93;;;5.40;;
4001;SDS011;2015;48.670;9.060;2023-04-25T01:19:24;6.10;;;5.60;;
4001;SDS011;2015;48.670;9.060;2023-04-25T01:21:56;6.10;;;5.30;;
4001;SDS011;2015;48.670;9.060;2023-04-25T01:24:28;4.93;;;4.60;;
4001;SDS011;2015;48.670;9.060;2023-04-25T01:27:02;4.90;;;4.60;;
4001;SDS011;2015;48.670;9.060;2023-04-25T01:29:35;5.40;;;4.93;;
4001;SDS011;2015;48.670;9.060;2023-04-25T01:32:07;7.63;;;4.80;;
4001;SDS011;2015;48.670;9.060;2023-04-25T01:34:39;5.87;;;5.43;;
4001;SDS011;2015;48.670;9.060;2023-04-25T01:37:11;4.73;;;4.30;;
4001;SDS011;2015;48.670;9.060;2023-04-25T01:39:43;4.63;;;3.97;;
4001;SDS011;2015;48.670;9.060;2023-04-25T01:42:15;4.43;;;3.37;;
4001;SDS011;2015;48.670;9.060;2023-04-25T01:44:47;4.43;;;4.03;;
4001;SDS011;2015;48.670;9.060;2023-04-25T01:47:19;4.83;;;3.80;;
4001;SDS011;2015;48.670;9.060;2023-04-25T01:49:51;4.73;;;4.43;;
4001;SDS011;2015;48.670;9.060;2023-04-25T01:52:23;4.77;;;4.37;;
4001;SDS011;2015;48.670;9.060;2023-04-25T01:54:55;5.23;;;4.83;;
4001;SDS011;2015;48.670;9.060;2023-04-25T01:57:28;4.90;;;4.03;;
4001;SDS011;2015;48.670;9.060;2023-04-25T02:00:02;5.77;;;5.27;;
4001;SDS011;2015;48.670;9.060;2023-04-25T02:02:37;5.67;;;5.27;;
4001;SDS011;2015;48.670;9.060;2023-04-25T02:05:09;5.20;;;4.70;;
4001;SDS011;2015;48.670;9.060;2023-04-25T02:07:41;5.20;;;4.63;;
4001;SDS011;2015;48.670;9.060;2023-04-25T02:10:13;6.80;;;4.60;;
4001;SDS011;2015;48.670;9.060;2023-04-25T02:12:46;4.90;;;4.40;;
4001;SDS011;2015;48.670;9.060;2023-04-25T02:15:17;6.37;;;5.87;;
4001;SDS011;2015;48.670;9.060;2023-04-25T02:17:49;4.43;;;4.03;;
4001;SDS011;2015;48.670;9.060;2023-04-25T02:20:24;5.13;;;4.37;;
4001;SDS011;2015;48.670;9.060;2023-04-25T02:22:57;4.43;;;4.13;;
4001;SDS011;2015;48.670;9.060;2023-04-25T02:25:29;4.80;;;4.30;;
4001;SDS011;2015;48.670;9.060;2023-04-25T02:28:01;7.83;;;4.67;;
4001;SDS011;2015;48.670;9.060;2023-04-25T02:30:32;5.13;;;4.83;;
4001;SDS011;2015;48.670;9.060;2023-04-25T02:33:04;5.37;;;4.97;;
4001;SDS011;2015;48.670;9.060;2023-04-25T02:35:36;5.10;;;4.70;;
4001;SDS011;2015;48.670;9.060;2023-04-25T02:38:08;6.10;;;4.40;;
4001;SDS011;2015;48.670;9.060;2023-04-25T02:40:40;4.63;;;4.33;;
4001;SDS011;2015;48.670;9.060;2023-04-25T02:43:12;4.90;;;4.57;;
4001;SDS011;2015;48.670;9.060;2023-04-25T02:45:43;4.50;;;4.17;;
4001;SDS011;2015;48.670;9.060;2023-04-25T02:48:15;4.50;;;4.20;;
4001;SDS011;2015;48.670;9.060;2023-04-25T02:50:47;4.73;;;4.13;;
4001;SDS011;2015;48.670;9.060;2023-04-25T02:53:19;4.57;;;4.20;;
4001;SDS011;2015;48.670;9.060;2023-04-25T02:55:51;6.00;;;4.67;;
4001;SDS011;2015;48.670;9.060;2023-04-25T02:58:23;4.90;;;4.50;;
4001;SDS011;2015;48.670;9.060;2023-04-25T03:00:56;5.20;;;4.90;;
4001;SDS011;2015;48.670;9.060;2023-04-25T03:03:27;5.07;;;4.67;;
4001;SDS011;2015;48.670;9.060;2023-04-25T03:05:59;5.13;;;4.50;;
4001;SDS011;2015;48.670;9.060;2023-04-25T03:08:31;4.63;;;4.20;;
4001;SDS011;2015;48.670;9.060;2023-04-25T03:11:05;5.10;;;4.73;;
4001;SDS011;2015;48.670;9.060;2023-04-25T03:13:37;4.80;;;4.40;;
4001;SDS011;2015;48.670;9.060;2023-04-25T03:16:08;4.90;;;4.50;;
4001;SDS011;2015;48.670;9.060;2023-04-25T03:18:41;9.70;;;5.60;;
4001;SDS011;2015;48.670;9.060;2023-04-25T03:21:13;5.37;;;5.00;;
4001;SDS011;2015;48.670;9.060;2023-04-25T03:23:44;5.00;;;4.60;;
4001;SDS011;2015;48.670;9.060;2023-04-25T03:26:16;5.50;;;4.60;;
4001;SDS011;2015;48.670;9.060;2023-04-25T03:28:48;4.83;;;4.43;;
4001;SDS011;2015;48.670;9.060;2023-04-25T03:31:20;5.50;;;5.00;;
4001;SDS011;2015;48.670;9.060;2023-04-25T03:33:53;5.00;;;4.60;;
4001;SDS011;2015;48.670;9.060;2023-04-25T03:36:24;6.63;;;4.60;;
4001;SDS011;2015;48.670;9.060;2023-04-25T03:38:56;4.90;;;4.50;;
4001;SDS011;2015;48.670;9.060;2023-04-25T03:41:28;5.90;;;4.77;;
4001;SDS011;2015;48.670;9.060;2023-04-25T03:44:00;4.90;;;4.50;;
4001;SDS011;2015;48.670;9.060;2023-04-25T03:46:32;4.70;;;4.30;;
4001;SDS011;2015;48.670;9.060;2023-04-25T03:49:04;6.00;;;5.50;;
4001;SDS011;2015;48.670;9.060;2023-04-25T03:51:36;6.30;;;5.70;;
4001;SDS011;2015;48.670;9.060;2023-04-25T03:54:08;6.63;;;4.90;;
4001;SDS011;2015;48.670;9.060;2023-04-25T03:56:39;5.30;;;4.37;;
4001;SDS011;2015;48.670;9.060;2023-04-25T03:59:11;16.03;;;6.33;;
4001;SDS011;2015;48.670;9.060;2023-04-25T04:01:43;4.30;;;4.03;;
4001;SDS011;2015;48.670;9.060;2023-04-25T04:04:15;5.23;;;4.73;;
4001;SDS011;2015;48.670;9.060;2023-04-25T04:06:48;5.17;;;4.67;;
4001;SDS011;2015;48.670;9.060;2023-04-25T04:09:19;4.57;;;4.27;;
4001;SDS011;2015;48.670;9.060;2023-04-25T04:11:51;4.90;;;4.50;;
4001;SDS011;2015;48.670;9.060;2023-04-25T04:14:23;7.80;;;5.47;;
4001;SDS011;2015;48.670;9.060;2023-04-25T04:16:55;6.43;;;5.50;;
4001;SDS011;2015;48.670;9.060;2023-04-25T04:19:26;6.50;;;5.73;;
4001;SDS011;2015;48.670;9.060;2023-04-25T04:21:58;9.20;;;5.80;;
4001;SDS011;2015;48.670;9.060;2023-04-25T04:24:30;5.77;;;5.10;;
4001;SDS011;2015;48.670;9.060;2023-04-25T04:27:02;5.57;;;5.10;;
4001;SDS011;2015;48.670;9.060;2023-04-25T04:29:34;5.70;;;5.20;;
4001;SDS011;2015;48.670;9.060;2023-04-25T04:32:06;5.40;;;4.90;;
4001;SDS011;2015;48.670;9.060;2023-04-25T04:34:39;6.60;;;4.70;;
4001;SDS011;2015;48.670;9.060;2023-04-25T04:37:12;5.73;;;4.30;;
4001;SDS011;2015;48.670;9.060;2023-04-25T04:39:44;6.03;;;5.33;;
4001;SDS011;2015;48.670;9.060;2023-04-25T04:42:16;5.83;;;5.40;;
4001;SDS011;2015;48.670;9.060;2023-04-25T04:44:48;5.40;;;5.10;;
4001;SDS011;2015;48.670;9.060;2023-04-25T04:47:20;6.75;;;6.05;;
4001;SDS011;2015;48.670;9.060;2023-04-25T04:49:52;7.87;;;6.37;;
4001;SDS011;2015;48.670;9.060;2023-04-25T04:52:23;7.50;;;6.90;;
4001;SDS011;2015;48.670;9.060;2023-04-25T04:54:55;6.10;;;5.70;;
4001;SDS011;2015;48.670;9.060;2023-04-25T04:57:27;6.80;;;6.20;;
4001;SDS011;2015;48.670;9.060;2023-04-25T04:59:59;6.13;;;5.53;;
4001;SDS011;2015;48.670;9.060;2023-04-25T05:02:32;6.30;;;5.80;;
4001;SDS011;2015;48.670;9.060;2023-04-25T05:05:04;7.70;;;6.90;;
4001;SDS011;2015;48.670;9.060;2023-04-25T05:07:36;7.40;;;6.27;;
4001;SDS011;2015;48.670;9.060;2023-04-25T05:10:08;6.63;;;6.07;;
4001;SDS011;2015;48.670;9.060;2023-04-25T05:12:41;6.70;;;6.10;;
4001;SDS011;2015;48.670;9.060;2023-04-25T05:15:13;8.10;;;6.70;;
4001;SDS011;2015;48.670;9.060;2023-04-25T05:17:45;9.30;;;7.07;;
4001;SDS011;2015;48.670;9.060;2023-04-25T05:20:17;6.90;;;6.27;;
4001;SDS011;2015;48.670;9.060;2023-04-25T05:22:50;7.27;;;6.77;;
4001;SDS011;2015;48.670;9.060;2023-04-25T05:25:22;10.13;;;8.20;;
4001;SDS011;2015;48.670;9.060;2023-04-25T05:27:53;9.83;;;7.87;;
4001;SDS011;2015;48.670;9.060;2023-04-25T05:30:25;8.00;;;7.30;;
4001;SDS011;2015;48.670;9.060;2023-04-25T05:32:57;8.40;;;6.77;;
4001;SDS011;2015;48.670;9.060;2023-04-25T05:35:29;7.70;;;7.00;;
4001;SDS011;2015;48.670;9.060;2023-04-25T05:38:01;7.80;;;7.10;;
4001;SDS011;2015;48.670;9.060;2023-04-25T05:40:33;9.90;;;8.73;;
4001;SDS011;2015;48.670;9.060;2023-04-25T05:43:04;7.57;;;6.72;;
4001;SDS011;2015;48.670;9.060;2023-04-25T05:45:36;7.03;;;6.53;;
4001;SDS011;2015;48.670;9.060;2023-04-25T05:48:08;7.33;;;6.80;;
4001;SDS011;2015;48.670;9.060;2023-04-25T05:50:40;7.20;;;6.50;;
4001;SDS011;2015;48.670;9.060;2023-04-25T05:53:11;7.23;;;6.20;;
4001;SDS011;2015;48.670;9.060;2023-04-25T05:55:43;6.13;;;5.63;;
4001;SDS011;2015;48.670;9.060;2023-04-25T05:58:15;6.93;;;6.40;;
4001;SDS011;2015;48.670;9.060;2023-04-25T06:00:47;6.43;;;5.83;;
4001;SDS011;2015;48.670;9.060;2023-04-25T06:03:19;6.73;;;6.13;;
4001;SDS011;2015;48.670;9.060;2023-04-25T06:05:51;6.90;;;6.00;;
4001;SDS011;2015;48.670;9.060;2023-04-25T06:08:23;6.80;;;6.23;;
4001;SDS011;2015;48.670;9.060;2023-04-25T06:10:55;6.57;;;5.90;;
4001;SDS011;2015;48.670;9.060;2023-04-25T06:13:27;7.17;;;6.43;;
4001;SDS011;2015;48.670;9.060;2023-04-25T06:15:58;7.05;;;6.35;;
4001;SDS011;2015;48.670;9.060;2023-04-25T06:18:30;7.40;;;6.80;;
4001;SDS011;2015;48.670;9.060;2023-04-25T06:21:02;7.80;;;5.90;;
4001;SDS011;2015;48.670;9.060;2023-04-25T06:23:34;5.70;;;5.30;;
4001;SDS011;2015;48.670;9.060;2023-04-25T06:26:06;6.20;;;5.70;;
4001;SDS011;2015;48.670;9.060;2023-04-25T06:28:38;6.87;;;6.30;;
4001;SDS011;2015;48.670;9.060;2023-04-25T06:31:10;6.77;;;6.27;;
4001;SDS011;2015;48.670;9.060;2023-04-25T06:33:42;6.63;;;6.10;;
4001;SDS011;2015;48.670;9.060;2023-04-25T06:36:13;6.77;;;6.13;;
4001;SDS011;2015;48.670;9.060;2023-04-25T06:38:45;11.47;;;6.70;;
4001;SDS011;2015;48.670;9.060;2023-04-25T06:41:17;6.25;;;5.65;;
4001;SDS011;2015;48.670;9.060;2023-04-25T06:43:49;7.73;;;6.97;;
4001;SDS011;2015;48.670;9.060;2023-04-25T06:46:21;6.97;;;6.37;;
4001;SDS011;2015;48.670;9.060;2023-04-25T06:48:53;10.23;;;5.87;;
4001;SDS011;2015;48.670;9.060;2023-04-25T06:51:25;6.20;;;5.80;;
4001;SDS011;2015;48.670;9.060;2023-04-25T06:53:59;5.90;;;5.30;;
4001;SDS011;2015;48.670;9.060;2023-04-25T06:56:31;7.67;;;6.17;;
4001;SDS011;2015;48.670;9.060;2023-04-25T06:59:03;6.20;;;5.70;;
4001;SDS011;2015;48.670;9.060;2023-04-25T07:01:35;8.37;;;5.67;;
4001;SDS011;2015;48.670;9.060;2023-04-25T07:04:06;8.73;;;5.87;;
4001;SDS011;2015;48.670;9.060;2023-04-25T07:06:38;5.70;;;5.10;;
4001;SDS011;2015;48.670;9.060;2023-04-25T07:09:13;5.43;;;4.93;;
4001;SDS011;2015;48.670;9.060;2023-04-25T07:11:45;6.30;;;5.70;;
4001;SDS011;2015;48.670;9.060;2023-04-25T07:14:17;6.30;;;5.70;;
4001;SDS011;2015;48.670;9.060;2023-04-25T07:16:49;6.97;;;6.40;;
4001;SDS011;2015;48.670;9.060;2023-04-25T07:19:21;7.53;;;5.40;;
4001;SDS011;2015;48.670;9.060;2023-04-25T07:21:52;6.40;;;5.90;;
4001;SDS011;2015;48.670;9.060;2023-04-25T07:24:24;6.47;;;5.80;;
4001;SDS011;2015;48.670;9.060;2023-04-25T07:26:56;6.90;;;5.27;;
4001;SDS011;2015;48.670;9.060;2023-04-25T07:29:29;7.13;;;6.33;;
4001;SDS011;2015;48.670;9.060;2023-04-25T07:32:02;7.00;;;6.30;;
4001;SDS011;2015;48.670;9.060;2023-04-25T07:34:34;10.97;;;6.33;;
4001;SDS011;2015;48.670;9.060;2023-04-25T07:37:08;8.75;;;6.25;;
4001;SDS011;2015;48.670;9.060;2023-04-25T07:39:40;7.87;;;7.00;;
4001;SDS011;2015;48.670;9.060;2023-04-25T07:42:13;7.00;;;6.30;;
4001;SDS011;2015;48.670;9.060;2023-04-25T07:44:44;6.30;;;5.80;;
4001;SDS011;2015;48.670;9.060;2023-04-25T07:47:16;8.57;;;7.67;;
4001;SDS011;2015;48.670;9.060;2023-04-25T07:49:50;9.30;;;7.47;;
4001;SDS011;2015;48.670;9.060;2023-04-25T07:52:22;9.10;;;7.30;;
4001;SDS011;2015;48.670;9.060;2023-04-25T07:54:53;18.20;;;8.43;;
4001;SDS011;2015;48.670;9.060;2023-04-25T07:57:26;8.93;;;8.03;;
4001;SDS011;2015;48.670;9.060;2023-04-25T07:59:57;7.03;;;6.33;;
4001;SDS011;2015;48.670;9.060;2023-04-25T08:02:29;7.83;;;6.80;;
4001;SDS011;2015;48.670;9.060;2023-04-25T08:05:01;8.10;;;6.33;;
4001;SDS011;2015;48.670;9.060;2023-04-25T08:07:34;8.03;;;7.33;;
4001;SDS011;2015;48.670;9.060;2023-04-25T08:10:06;7.40;;;6.73;;
4001;SDS011;2015;48.670;9.060;2023-04-25T08:12:38;7.10;;;6.40;;
4001;SDS011;2015;48.670;9.060;2023-04-25T08:15:10;8.27;;;7.47;;
4001;SDS011;2015;48.670;9.060;2023-04-25T08:17:44;7.07;;;6.43;;
4001;SDS011;2015;48.670;9.060;2023-04-25T08:20:16;9.83;;;7.27;;
4001;SDS011;2015;48.670;9.060;2023-04-25T08:22:48;8.67;;;7.87;;
4001;SDS011;2015;48.670;9.060;2023-04-25T08:25:20;7.83;;;7.20;;
4001;SDS011;2015;48.670;9.060;2023-04-25T08:27:52;7.63;;;7.03;;
4001;SDS011;2015;48.670;9.060;2023-04-25T08:30:24;6.53;;;6.03;;
4001;SDS011;2015;48.670;9.060;2023-04-25T08:32:56;7.00;;;6.33;;
4001;SDS011;2015;48.670;9.060;2023-04-25T08:35:28;6.90;;;6.00;;
4001;SDS011;2015;48.670;9.060;2023-04-25T08:37:59;7.53;;;6.83;;
4001;SDS011;2015;48.670;9.060;2023-04-25T08:40:32;7.83;;;7.23;;
4001;SDS011;2015;48.670;9.060;2023-04-25T08:43:09;7.77;;;7.00;;
4001;SDS011;2015;48.670;9.060;2023-04-25T08:45:44;6.87;;;6.33;;
4001;SDS011;2015;48.670;9.060;2023-04-25T08:48:18;9.60;;;7.03;;
4001;SDS011;2015;48.670;9.060;2023-04-25T08:50:51;7.53;;;6.83;;
4001;SDS011;2015;48.670;9.060;2023-04-25T08:53:28;8.03;;;7.27;;
4001;SDS011;2015;48.670;9.060;2023-04-25T08:56:04;13.80;;;8.33;;
4001;SDS011;2015;48.670;9.060;2023-04-25T08:58:38;9.37;;;8.03;;
4001;SDS011;2015;48.670;9.060;2023-04-25T09:01:10;7.17;;;6.57;;
4001;SDS011;2015;48.670;9.060;2023-04-25T09:03:43;9.13;;;6.90;;
4001;SDS011;2015;48.670;9.060;2023-04-25T09:06:16;7.70;;;7.00;;
4001;SDS011;2015;48.670;9.060;2023-04-25T09:08:49;7.60;;;6.83;;
4001;SDS011;2015;48.670;9.060;2023-04-25T09:11:21;6.10;;;5.60;;
4001;SDS011;2015;48.670;9.060;2023-04-25T09:14:09;7.00;;;6.40;;
4001;SDS011;2015;48.670;9.060;2023-04-25T09:19:29;7.00;;;6.40;;
4001;SDS011;2015;48.670;9.060;2023-04-25T09:22:12;6.40;;;5.90;;
4001;SDS011;2015;48.670;9.060;2023-04-25T09:24:44;7.30;;;6.60;;
4001;SDS011;2015;48.670;9.060;2023-04-25T09:27:21;7.10;;;6.50;;
4001;SDS011;2015;48.670;9.060;2023-04-25T09:29:58;6.78;;;6.18;;
4001;SDS011;2015;48.670;9.060;2023-04-25T09:32:33;6.23;;;5.80;;
4001;SDS011;2015;48.670;9.060;2023-04-25T09:35:05;6.50;;;6.00;;
4001;SDS011;2015;48.670;9.060;2023-04-25T09:37:37;9.20;;;6.17;;
4001;SDS011;2015;48.670;9.060;2023-04-25T09:40:11;5.57;;;5.17;;
4001;SDS011;2015;48.670;9.060;2023-04-25T09:42:43;5.30;;;4.80;;
4001;SDS011;2015;48.670;9.060;2023-04-25T09:45:15;6.07;;;5.20;;
4001;SDS011;2015;48.670;9.060;2023-04-25T09:47:47;6.63;;;6.10;;
4001;SDS011;2015;48.670;9.060;2023-04-25T09:50:19;5.10;;;4.80;;
4001;SDS011;2015;48.670;9.060;2023-04-25T09:53:03;5.23;;;4.73;;
4001;SDS011;2015;48.670;9.060;2023-04-25T09:55:38;3.60;;;3.40;;
4001;SDS011;2015;48.670;9.060;2023-04-25T09:58:11;4.13;;;3.67;;
4001;SDS011;2015;48.670;9.060;2023-04-25T10:00:44;3.23;;;3.03;;
4001;SDS011;2015;48.670;9.060;2023-04-25T10:03:19;4.90;;;4.15;;
4001;SDS011;2015;48.670;9.060;2023-04-25T10:05:54;4.53;;;4.30;;
4001;SDS011;2015;48.670;9.060;2023-04-25T10:08:29;2.53;;;2.33;;
4001;SDS011;2015;48.670;9.060;2023-04-25T10:11:05;3.57;;;3.27;;
4001;SDS011;2015;48.670;9.060;2023-04-25T10:13:38;3.20;;;3.00;;
4001;SDS011;2015;48.670;9.060;2023-04-25T10:16:10;2.33;;;2.13;;
4001;SDS011;2015;48.670;9.060;2023-04-25T10:18:43;2.10;;;2.00;;
4001;SDS011;2015;48.670;9.060;2023-04-25T10:21:14;2.17;;;2.00;;
4001;SDS011;2015;48.670;9.060;2023-04-25T10:23:47;2.60;;;2.27;;
4001;SDS011;2015;48.670;9.060;2023-04-25T10:26:20;2.30;;;2.20;;
4001;SDS011;2015;48.670;9.060;2023-04-25T10:28:56;1.90;;;1.58;;
4001;SDS011;2015;48.670;9.060;2023-04-25T10:31:30;1.70;;;1.60;;
4001;SDS011;2015;48.670;9.060;2023-04-25T10:34:02;1.60;;;1.50;;
4001;SDS011;2015;48.670;9.060;2023-04-25T10:36:36;1.97;;;1.57;;
4001;SDS011;2015;48.670;9.060;2023-04-25T10:39:08;1.90;;;1.80;;
4001;SDS011;2015;48.670;9.060;2023-04-25T10:41:56;1.90;;;1.80;;
4001;SDS011;2015;48.670;9.060;2023-04-25T10:44:29;2.30;;;2.20;;
4001;SDS011;2015;48.670;9.060;2023-04-25T10:47:01;1.90;;;1.80;;
4001;SDS011;2015;48.670;9.060;2023-04-25T10:49:37;1.47;;;1.23;;
4001;SDS011;2015;48.670;9.060;2023-04-25T10:52:17;1.63;;;1.53;;
4001;SDS011;2015;48.670;9.060;2023-04-25T10:54:55;1.90;;;1.80;;
4001;SDS011;2015;48.670;9.060;2023-04-25T10:57:32;1.50;;;1.40;;
4001;SDS011;2015;48.670;9.060;2023-04-25T11:02:53;1.43;;;1.33;;
4001;SDS011;2015;48.670;9.060;2023-04-25T11:05:33;1.40;;;1.30;;
4001;SDS011;2015;48.670;9.060;2023-04-25T11:08:17;1.47;;;1.37;;
4001;SDS011;2015;48.670;9.060;2023-04-25T11:11:04;1.20;;;1.10;;
4001;SDS011;2015;48.670;9.060;2023-04-25T11:13:36;1.80;;;1.70;;
4001;SDS011;2015;48.670;9.060;2023-04-25T11:16:08;0.97;;;0.87;;
4001;SDS011;2015;48.670;9.060;2023-04-25T11:18:43;20.07;;;10.67;;
4001;SDS011;2015;48.670;9.060;2023-04-25T11:21:15;2.47;;;2.37;;
4001;SDS011;2015;48.670;9.060;2023-04-25T11:23:48;2.30;;;1.70;;
4001;SDS011;2015;48.670;9.060;2023-04-25T11:26:20;2.30;;;1.60;;
4001;SDS011;2015;48.670;9.060;2023-04-25T11:28:56;3.50;;;1.83;;
4001;SDS011;2015;48.670;9.060;2023-04-25T11:31:30;1.60;;;1.50;;
4001;SDS011;2015;48.670;9.060;2023-04-25T11:34:02;2.80;;;2.20;;
4001;SDS011;2015;48.670;9.060;2023-04-25T11:36:34;1.87;;;1.77;;
4001;SDS011;2015;48.670;9.060;2023-04-25T11:39:09;1.87;;;1.77;;
4001;SDS011;2015;48.670;9.060;2023-04-25T11:41:41;2.73;;;2.53;;
4001;SDS011;2015;48.670;9.060;2023-04-25T11:44:16;2.97;;;2.77;;
4001;SDS011;2015;48.670;9.060;2023-04-25T11:46:49;2.50;;;2.30;;
4001;SDS011;2015;48.670;9.060;2023-04-25T11:49:20;2.63;;;2.47;;
4001;SDS011;2015;48.670;9.060;2023-04-25T11:51:53;2.70;;;2.50;;
4001;SDS011;2015;48.670;9.060;2023-04-25T11:54:25;2.70;;;2.43;;
4001;SDS011;2015;48.670;9.060;2023-04-25T11:56:57;3.77;;;3.47;;
4001;SDS011;2015;48.670;9.060;2023-04-25T11:59:29;2.73;;;2.53;;
4001;SDS011;2015;48.670;9.060;2023-04-25T12:02:01;2.90;;;2.70;;
4001;SDS011;2015;48.670;9.060;2023-04-25T12:04:33;2.60;;;2.40;;
4001;SDS011;2015;48.670;9.060;2023-04-25T12:07:05;2.93;;;2.73;;
4001;SDS011;2015;48.670;9.060;2023-04-25T12:09:41;2.67;;;2.57;;
4001;SDS011;2015;48.670;9.060;2023-04-25T12:12:13;3.13;;;2.93;;
4001;SDS011;2015;48.670;9.060;2023-04-25T12:14:46;4.03;;;2.60;;
4001;SDS011;2015;48.670;9.060;2023-04-25T12:17:22;3.57;;;3.33;;
4001;SDS011;2015;48.670;9.060;2023-04-25T12:19:54;3.20;;;3.00;;
4001;SDS011;2015;48.670;9.060;2023-04-25T12:22:26;3.30;;;3.10;;
4001;SDS011;2015;48.670;9.060;2023-04-25T12:24:57;3.70;;;3.43;;
4001;SDS011;2015;48.670;9.060;2023-04-25T12:27:30;4.00;;;3.70;;
4001;SDS011;2015;48.670;9.060;2023-04-25T12:30:02;5.43;;;4.40;;
4001;SDS011;2015;48.670;9.060;2023-04-25T12:32:35;5.00;;;4.50;;
4001;SDS011;2015;48.670;9.060;2023-04-25T12:35:07;5.15;;;4.75;;
4001;SDS011;2015;48.670;9.060;2023-04-25T12:37:39;5.20;;;4.80;;
4001;SDS011;2015;48.670;9.060;2023-04-25T12:40:11;4.50;;;4.30;;
4001;SDS011;2015;48.670;9.060;2023-04-25T12:42:44;4.83;;;4.47;;
4001;SDS011;2015;48.670;9.060;2023-04-25T12:45:16;4.93;;;4.53;;
4001;SDS011;2015;48.670;9.060;2023-04-25T12:47:47;5.53;;;5.13;;
4001;SDS011;2015;48.670;9.060;2023-04-25T12:50:19;5.67;;;5.27;;
4001;SDS011;2015;48.670;9.060;2023-04-25T12:52:51;5.37;;;4.87;;
4001;SDS011;2015;48.670;9.060;2023-04-25T12:55:23;7.28;;;5.88;;
4001;SDS011;2015;48.670;9.060;2023-04-25T12:57:55;6.80;;;6.20;;
4001;SDS011;2015;48.670;9.060;2023-04-25T13:00:26;8.23;;;6.47;;
4001;SDS011;2015;48.670;9.060;2023-04-25T13:02:58;7.60;;;6.90;;
4001;SDS011;2015;48.670;9.060;2023-04-25T13:05:30;6.40;;;5.80;;
4001;SDS011;2015;48.670;9.060;2023-04-25T13:08:02;7.63;;;6.90;;
4001;SDS011;2015;48.670;9.060;2023-04-25T13:10:35;7.07;;;6.37;;
4001;SDS011;2015;48.670;9.060;2023-04-25T13:13:09;6.67;;;6.07;;
4001;SDS011;2015;48.670;9.060;2023-04-25T13:15:41;9.27;;;6.67;;
4001;SDS011;2015;48.670;9.060;2023-04-25T13:18:12;5.90;;;5.47;;
4001;SDS011;2015;48.670;9.060;2023-04-25T13:20:46;7.72;;;6.93;;
4001;SDS011;2015;48.670;9.060;2023-04-25T13:23:19;7.70;;;7.10;;
4001;SDS011;2015;48.670;9.060;2023-04-25T13:25:51;8.07;;;7.27;;
4001;SDS011;2015;48.670;9.060;2023-04-25T13:28:24;7.27;;;6.57;;
4001;SDS011;2015;48.670;9.060;2023-04-25T13:30:56;9.63;;;7.37;;
4001;SDS011;2015;48.670;9.060;2023-04-25T13:33:28;8.47;;;7.60;;
4001;SDS011;2015;48.670;9.060;2023-04-25T13:36:00;7.43;;;6.80;;
4001;SDS011;2015;48.670;9.060;2023-04-25T13:38:32;7.80;;;7.10;;
4001;SDS011;2015;48.670;9.060;2023-04-25T13:41:04;8.60;;;7.90;;
4001;SDS011;2015;48.670;9.060;2023-04-25T13:43:38;9.67;;;8.57;;
4001;SDS011;2015;48.670;9.060;2023-04-25T13:46:09;8.97;;;8.20;;
4001;SDS011;2015;48.670;9.060;2023-04-25T13:49:03;11.27;;;8.77;;
4001;SDS011;2015;48.670;9.060;2023-04-25T13:51:43;10.87;;;9.13;;
4001;SDS011;2015;48.670;9.060;2023-04-25T13:54:15;9.80;;;8.83;;
4001;SDS011;2015;48.670;9.060;2023-04-25T13:56:46;10.30;;;9.30;;
4001;SDS011;2015;48.670;9.060;2023-04-25T13:59:19;11.17;;;9.33;;
4001;SDS011;2015;48.670;9.060;2023-04-25T14:01:51;11.80;;;9.93;;
4001;SDS011;2015;48.670;9.060;2023-04-25T14:04:23;10.50;;;9.27;;
4001;SDS011;2015;48.670;9.060;2023-04-25T14:06:56;10.63;;;8.70;;
4001;SDS011;2015;48.670;9.060;2023-04-25T14:09:28;11.03;;;8.70;;
4001;SDS011;2015;48.670;9.060;2023-04-25T14:11:59;9.40;;;8.57;;
4001;SDS011;2015;48.670;9.060;2023-04-25T14:14:33;8.30;;;7.60;;
4001;SDS011;2015;48.670;9.060;2023-04-25T14:17:05;10.88;;;9.77;;
4001;SDS011;2015;48.670;9.060;2023-04-25T14:19:37;10.37;;;9.40;;
4001;SDS011;2015;48.670;9.060;2023-04-25T14:22:14;11.50;;;9.30;;
4001;SDS011;2015;48.670;9.060;2023-04-25T14:24:46;9.83;;;8.83;;
4001;SDS011;2015;48.670;9.060;2023-04-25T14:27:18;10.60;;;9.60;;
4001;SDS011;2015;48.670;9.060;2023-04-25T14:29:50;10.00;;;8.57;;
4001;SDS011;2015;48.670;9.060;2023-04-25T14:32:21;9.87;;;9.00;;
4001;SDS011;2015;48.670;9.060;2023-04-25T14:34:53;8.70;;;7.90;;
4001;SDS011;2015;48.670;9.060;2023-04-25T14:37:25;8.80;;;8.00;;
4001;SDS011;2015;48.670;9.060;2023-04-25T14:39:57;7.90;;;7.07;;
4001;SDS011;2015;48.670;9.060;2023-04-25T14:42:28;8.10;;;7.30;;
4001;SDS011;2015;48.670;9.060;2023-04-25T14:45:01;10.30;;;7.57;;
4001;SDS011;2015;48.670;9.060;2023-04-25T14:47:34;8.50;;;7.30;;
4001;SDS011;2015;48.670;9.060;2023-04-25T14:50:10;8.25;;;7.35;;
4001;SDS011;2015;48.670;9.060;2023-04-25T14:52:41;7.73;;;6.80;;
4001;SDS011;2015;48.670;9.060;2023-04-25T14:55:14;7.97;;;7.30;;
4001;SDS011;2015;48.670;9.060;2023-04-25T14:57:45;5.80;;;5.40;;
4001;SDS011;2015;48.670;9.060;2023-04-25T15:00:17;6.87;;;6.37;;
4001;SDS011;2015;48.670;9.060;2023-04-25T15:02:51;7.37;;;6.77;;
4001;SDS011;2015;48.670;9.060;2023-04-25T15:05:24;6.80;;;6.10;;
4001;SDS011;2015;48.670;9.060;2023-04-25T15:07:56;6.80;;;6.20;;
4001;SDS011;2015;48.670;9.060;2023-04-25T15:10:28;5.80;;;5.40;;
4001;SDS011;2015;48.670;9.060;2023-04-25T15:13:00;6.70;;;5.90;;
4001;SDS011;2015;48.670;9.060;2023-04-25T15:15:32;7.30;;;6.63;;
4001;SDS011;2015;48.670;9.060;2023-04-25T15:18:04;7.60;;;6.90;;
4001;SDS011;2015;48.670;9.060;2023-04-25T15:20:36;6.77;;;6.30;;
4001;SDS011;2015;48.670;9.060;2023-04-25T15:23:08;5.33;;;4.87;;
4001;SDS011;2015;48.670;9.060;2023-04-25T15:25:39;6.47;;;6.07;;
4001;SDS011;2015;48.670;9.060;2023-04-25T15:28:11;6.87;;;6.13;;
4001;SDS011;2015;48.670;9.060;2023-04-25T15:30:47;6.57;;;5.97;;
4001;SDS011;2015;48.670;9.060;2023-04-25T15:33:19;7.83;;;5.37;;
4001;SDS011;2015;48.670;9.060;2023-04-25T15:35:51;5.67;;;5.20;;
4001;SDS011;2015;48.670;9.060;2023-04-25T15:38:23;5.20;;;4.80;;
4001;SDS011;2015;48.670;9.060;2023-04-25T15:40:55;5.83;;;5.43;;
4001;SDS011;2015;48.670;9.060;2023-04-25T15:43:27;4.60;;;4.30;;
4001;SDS011;2015;48.670;9.060;2023-04-25T15:45:59;4.57;;;4.20;;
4001;SDS011;2015;48.670;9.060;2023-04-25T15:48:31;4.63;;;4.22;;
4001;SDS011;2015;48.670;9.060;2023-04-25T15:51:03;5.17;;;4.83;;
4001;SDS011;2015;48.670;9.060;2023-04-25T15:53:36;5.33;;;5.03;;